createdAt,value
2018-11-25T00:00:22.645Z,12.00
2018-11-25T00:02:51.249Z,8.90
2018-11-25T00:05:19.934Z,9.90
2018-11-25T00:07:48.663Z,7.10
2018-11-25T00:10:17.319Z,9.73
2018-11-25T00:12:46.011Z,8.10
2018-11-25T00:15:14.602Z,10.43
2018-11-25T00:17:43.592Z,8.57
2018-11-25T00:20:13.926Z,7.20
2018-11-25T00:22:43.042Z,7.33
2018-11-25T00:25:12.995Z,7.47
2018-11-25T00:27:42.059Z,8.00
2018-11-25T00:30:13.815Z,6.87
2018-11-25T00:32:42.470Z,7.20
2018-11-25T00:35:12.361Z,6.80
2018-11-25T00:37:48.003Z,8.13
2018-11-25T00:40:13.166Z,5.87
2018-11-25T00:42:42.005Z,8.67
2018-11-25T00:45:15.331Z,7.77
2018-11-25T00:47:44.127Z,11.93
2018-11-25T00:50:13.896Z,11.33
2018-11-25T00:52:42.504Z,10.87
2018-11-25T00:55:18.041Z,14.97
2018-11-25T00:57:46.674Z,13.90
2018-11-25T01:00:17.120Z,7.60
2018-11-25T01:02:46.487Z,9.03
2018-11-25T01:05:15.318Z,7.97
2018-11-25T01:07:44.109Z,5.70
2018-11-25T01:10:16.654Z,8.87
2018-11-25T01:12:45.777Z,7.03
2018-11-25T01:15:16.354Z,11.87
2018-11-25T01:17:45.221Z,7.23
2018-11-25T01:20:16.295Z,6.33
2018-11-25T01:22:45.052Z,5.00
2018-11-25T01:25:13.811Z,4.77
2018-11-25T01:27:42.561Z,7.80
2018-11-25T01:30:13.385Z,7.23
2018-11-25T01:32:42.212Z,5.10
2018-11-25T01:35:11.765Z,4.70
2018-11-25T01:37:40.844Z,6.67
2018-11-25T01:40:17.296Z,6.10
2018-11-25T01:42:46.048Z,7.13
2018-11-25T01:45:16.723Z,6.10
2018-11-25T01:47:45.701Z,8.33
2018-11-25T01:50:15.380Z,12.10
2018-11-25T01:52:43.903Z,9.67
2018-11-25T01:55:15.477Z,8.90
2018-11-25T01:57:44.092Z,10.17
2018-11-25T02:00:16.973Z,11.40
2018-11-25T02:02:45.581Z,10.30
2018-11-25T02:05:14.264Z,14.53
2018-11-25T02:07:42.893Z,12.30
2018-11-25T02:10:14.712Z,11.60
2018-11-25T02:12:43.591Z,9.33
2018-11-25T02:15:13.621Z,10.73
2018-11-25T02:17:42.264Z,12.60
2018-11-25T02:20:23.521Z,14.20
2018-11-25T02:22:53.427Z,24.00
2018-11-25T02:25:22.159Z,23.47
2018-11-25T02:27:50.884Z,24.47
2018-11-25T02:30:19.622Z,24.20
2018-11-25T02:32:48.297Z,27.33
2018-11-25T02:35:17.778Z,25.97
2018-11-25T02:37:46.391Z,25.70
2018-11-25T02:40:16.245Z,28.93
2018-11-25T02:42:51.640Z,30.97
2018-11-25T02:45:20.150Z,29.67
2018-11-25T02:47:48.679Z,30.57
2018-11-25T02:50:24.499Z,35.73
2018-11-25T02:52:53.692Z,34.10
2018-11-25T02:55:23.501Z,31.67
2018-11-25T02:57:52.396Z,33.60
2018-11-25T03:00:20.998Z,37.57
2018-11-25T03:02:49.843Z,39.60
2018-11-25T03:05:18.342Z,38.17
2018-11-25T03:07:47.063Z,48.80
2018-11-25T03:10:15.683Z,44.03
2018-11-25T03:12:44.460Z,52.67
2018-11-25T03:15:15.155Z,53.53
2018-11-25T03:17:44.003Z,48.63
2018-11-25T03:20:14.564Z,52.33
2018-11-25T03:22:43.387Z,40.97
2018-11-25T03:25:15.065Z,62.20
2018-11-25T03:27:43.731Z,64.13
2018-11-25T03:30:14.320Z,64.67
2018-11-25T03:32:43.316Z,57.40
2018-11-25T03:35:12.710Z,62.57
2018-11-25T03:37:41.202Z,55.10
2018-11-25T03:40:12.799Z,63.70
2018-11-25T03:42:41.361Z,59.37
2018-11-25T03:45:14.317Z,57.27
2018-11-25T03:47:42.933Z,63.90
2018-11-25T03:50:12.460Z,66.60
2018-11-25T03:52:41.035Z,73.17
2018-11-25T03:55:10.967Z,61.00
2018-11-25T03:57:39.639Z,64.97
2018-11-25T04:00:10.252Z,58.40
2018-11-25T04:02:38.900Z,59.37
2018-11-25T04:05:09.212Z,60.00
2018-11-25T04:07:37.784Z,53.60
2018-11-25T04:10:09.416Z,63.67
2018-11-25T04:12:37.946Z,57.77
2018-11-25T04:15:09.459Z,52.00
2018-11-25T04:17:38.052Z,63.00
2018-11-25T04:20:08.827Z,54.93
2018-11-25T04:22:38.149Z,60.63
2018-11-25T04:25:09.220Z,65.63
2018-11-25T04:27:37.821Z,67.13
2018-11-25T04:30:19.807Z,60.80
2018-11-25T04:32:50.354Z,72.60
2018-11-25T04:35:19.195Z,63.10
2018-11-25T04:37:47.936Z,63.20
2018-11-25T04:40:17.459Z,63.07
2018-11-25T04:42:46.082Z,60.87
2018-11-25T04:45:16.619Z,60.87
2018-11-25T04:47:46.113Z,70.93
2018-11-25T04:50:21.018Z,64.10
2018-11-25T04:52:50.007Z,62.47
2018-11-25T04:55:18.627Z,76.17
2018-11-25T04:57:52.688Z,73.63
2018-11-25T05:00:21.768Z,64.10
2018-11-25T05:02:51.357Z,66.10
2018-11-25T05:05:20.615Z,72.03
2018-11-25T05:07:49.342Z,73.13
2018-11-25T05:10:18.931Z,73.17
2018-11-25T05:12:47.544Z,75.90
2018-11-25T05:15:19.258Z,77.27
2018-11-25T05:17:47.907Z,72.83
2018-11-25T05:20:17.047Z,71.80
2018-11-25T05:22:45.592Z,71.17
2018-11-25T05:25:17.441Z,77.10
2018-11-25T05:27:46.034Z,79.87
2018-11-25T05:30:17.522Z,74.97
2018-11-25T05:32:46.441Z,68.90
2018-11-25T05:35:19.217Z,72.70
2018-11-25T05:37:48.003Z,71.70
2018-11-25T05:40:17.131Z,62.90
2018-11-25T05:42:46.065Z,64.90
2018-11-25T05:45:17.941Z,73.00
2018-11-25T05:47:46.727Z,70.77
2018-11-25T05:50:20.083Z,63.20
2018-11-25T05:52:48.673Z,61.90
2018-11-25T05:55:17.251Z,58.97
2018-11-25T05:57:45.896Z,68.43
2018-11-25T06:00:16.757Z,66.03
2018-11-25T06:02:45.325Z,60.37
2018-11-25T06:05:13.929Z,51.20
2018-11-25T06:07:42.522Z,57.43
2018-11-25T06:10:12.580Z,51.93
2018-11-25T06:12:41.365Z,58.80
2018-11-25T06:15:14.914Z,47.93
2018-11-25T06:17:43.602Z,62.63
2018-11-25T06:20:13.470Z,48.53
2018-11-25T06:22:42.256Z,60.17
2018-11-25T06:25:15.356Z,55.40
2018-11-25T06:27:43.947Z,58.77
2018-11-25T06:30:18.856Z,59.23
2018-11-25T06:32:47.477Z,51.70
2018-11-25T06:35:17.253Z,52.03
2018-11-25T06:37:45.987Z,52.80
2018-11-25T06:40:17.794Z,50.53
2018-11-25T06:42:46.516Z,48.70
2018-11-25T06:45:17.155Z,54.53
2018-11-25T06:47:45.889Z,52.03
2018-11-25T06:50:14.541Z,65.33
2018-11-25T06:52:43.104Z,58.27
2018-11-25T06:55:12.837Z,61.97
2018-11-25T06:57:41.403Z,61.07
2018-11-25T07:00:13.713Z,49.70
2018-11-25T07:02:42.416Z,43.13
2018-11-25T07:05:11.325Z,52.70
2018-11-25T07:07:40.042Z,50.93
2018-11-25T07:10:11.975Z,50.60
2018-11-25T07:12:40.596Z,46.23
2018-11-25T07:15:11.863Z,44.50
2018-11-25T07:17:40.593Z,45.97
2018-11-25T07:20:10.834Z,52.37
2018-11-25T07:22:39.424Z,42.70
2018-11-25T07:25:15.282Z,45.03
2018-11-25T07:27:44.070Z,44.33
2018-11-25T07:30:16.209Z,39.17
2018-11-25T07:32:44.916Z,43.50
2018-11-25T07:35:13.516Z,51.60
2018-11-25T07:37:42.255Z,47.00
2018-11-25T07:40:14.164Z,40.00
2018-11-25T07:42:43.085Z,47.97
2018-11-25T07:45:15.114Z,37.50
2018-11-25T07:47:43.699Z,46.40
2018-11-25T07:50:14.259Z,36.93
2018-11-25T07:52:44.093Z,50.50
2018-11-25T07:55:14.778Z,41.07
2018-11-25T07:57:43.792Z,45.30
2018-11-25T08:00:16.778Z,47.17
2018-11-25T08:02:45.628Z,43.87
2018-11-25T08:05:16.596Z,43.77
2018-11-25T08:07:45.143Z,42.80
2018-11-25T08:10:14.997Z,40.10
2018-11-25T08:12:44.158Z,50.43
2018-11-25T08:15:15.082Z,45.97
2018-11-25T08:17:43.868Z,50.40
2018-11-25T08:20:13.669Z,47.37
2018-11-25T08:22:42.518Z,48.23
2018-11-25T08:25:13.962Z,44.80
2018-11-25T08:27:42.609Z,51.73
2018-11-25T08:30:14.368Z,48.63
2018-11-25T08:32:43.136Z,47.93
2018-11-25T08:35:12.676Z,42.03
2018-11-25T08:37:41.588Z,48.00
2018-11-25T08:40:15.370Z,45.30
2018-11-25T08:42:44.135Z,54.17
2018-11-25T08:45:13.764Z,44.53
2018-11-25T08:47:42.643Z,36.00
2018-11-25T08:50:14.554Z,44.17
2018-11-25T08:52:44.062Z,47.40
2018-11-25T08:55:13.901Z,37.97
2018-11-25T08:57:42.626Z,38.23
2018-11-25T09:00:16.437Z,42.57
2018-11-25T09:02:45.467Z,35.80
2018-11-25T09:05:15.253Z,37.20
2018-11-25T09:07:44.199Z,37.00
2018-11-25T09:10:15.013Z,36.37
2018-11-25T09:12:44.490Z,35.40
2018-11-25T09:15:22.588Z,40.13
2018-11-25T09:17:52.256Z,38.90
2018-11-25T09:20:21.833Z,41.50
2018-11-25T09:22:51.498Z,41.90
2018-11-25T09:25:22.694Z,42.70
2018-11-25T09:27:51.439Z,46.27
2018-11-25T09:30:21.521Z,41.57
2018-11-25T09:32:50.272Z,51.20
2018-11-25T09:35:19.081Z,40.97
2018-11-25T09:37:47.723Z,41.73
2018-11-25T09:40:20.480Z,40.20
2018-11-25T09:42:49.499Z,41.30
2018-11-25T09:45:19.303Z,41.00
2018-11-25T09:47:48.584Z,36.00
2018-11-25T09:50:18.278Z,44.50
2018-11-25T09:52:47.465Z,36.50
2018-11-25T09:55:17.144Z,43.07
2018-11-25T09:57:47.331Z,46.73
2018-11-25T10:00:18.357Z,40.10
2018-11-25T10:02:47.024Z,46.10
2018-11-25T10:05:15.790Z,38.97
2018-11-25T10:07:44.420Z,41.77
2018-11-25T10:10:17.191Z,44.93
2018-11-25T10:12:46.112Z,37.90
2018-11-25T10:15:18.455Z,42.00
2018-11-25T10:17:47.403Z,37.43
2018-11-25T10:20:19.439Z,45.57
2018-11-25T10:22:48.163Z,52.00
2018-11-25T10:25:17.366Z,43.73
2018-11-25T10:27:46.360Z,49.93
2018-11-25T10:30:20.007Z,47.13
2018-11-25T10:32:50.279Z,44.60
2018-11-25T10:35:18.919Z,56.47
2018-11-25T10:37:47.782Z,51.50
2018-11-25T10:40:17.694Z,44.77
2018-11-25T10:42:46.517Z,42.63
2018-11-25T10:45:18.141Z,41.30
2018-11-25T10:47:47.142Z,40.23
2018-11-25T10:50:17.106Z,48.50
2018-11-25T10:52:45.982Z,38.83
2018-11-25T10:55:15.699Z,43.10
2018-11-25T10:57:45.309Z,36.00
2018-11-25T11:00:22.905Z,45.10
2018-11-25T11:02:57.192Z,49.57
2018-11-25T11:05:31.258Z,43.93
2018-11-25T11:08:00.241Z,27.83
2018-11-25T11:10:29.091Z,35.43
2018-11-25T11:12:58.866Z,44.40
2018-11-25T11:15:26.641Z,36.90
2018-11-25T11:17:55.565Z,35.90
2018-11-25T11:20:24.223Z,35.23
2018-11-25T11:22:53.228Z,38.90
2018-11-25T11:25:22.165Z,33.53
2018-11-25T11:27:51.059Z,28.40
2018-11-25T11:30:19.906Z,33.23
2018-11-25T11:32:50.130Z,29.10
2018-11-25T11:35:18.921Z,28.77
2018-11-25T11:37:47.959Z,31.60
2018-11-25T11:40:16.882Z,27.70
2018-11-25T11:42:45.679Z,27.27
2018-11-25T11:45:15.509Z,28.33
2018-11-25T11:47:45.075Z,34.20
2018-11-25T11:50:18.383Z,28.63
2018-11-25T11:52:47.496Z,29.30
2018-11-25T11:55:17.425Z,36.77
2018-11-25T11:57:47.117Z,29.20
2018-11-25T12:00:32.161Z,36.93
2018-11-25T12:03:01.439Z,37.97
2018-11-25T12:05:30.719Z,33.77
2018-11-25T12:07:59.975Z,47.10
2018-11-25T12:10:28.990Z,33.20
2018-11-25T12:12:57.923Z,37.67
2018-11-25T12:15:31.110Z,33.53
2018-11-25T12:17:59.205Z,41.63
2018-11-25T12:20:29.394Z,32.70
2018-11-25T12:22:58.812Z,39.23
2018-11-25T12:25:27.935Z,34.77
2018-11-25T12:27:56.680Z,38.80
2018-11-25T12:30:25.417Z,43.27
2018-11-25T12:32:54.159Z,33.93
2018-11-25T12:35:23.094Z,45.00
2018-11-25T12:37:51.843Z,48.00
2018-11-25T12:40:21.962Z,38.57
2018-11-25T12:42:56.001Z,39.10
2018-11-25T12:45:25.398Z,45.30
2018-11-25T12:47:54.417Z,37.20
2018-11-25T12:50:25.192Z,36.90
2018-11-25T12:52:54.415Z,46.03
2018-11-25T12:55:24.656Z,43.50
2018-11-25T12:57:54.270Z,33.37
2018-11-25T13:00:32.814Z,33.83
2018-11-25T13:03:01.890Z,40.20
2018-11-25T13:05:31.122Z,35.70
2018-11-25T13:08:00.105Z,36.70
2018-11-25T13:10:29.776Z,31.43
2018-11-25T13:12:59.168Z,39.87
2018-11-25T13:15:28.060Z,38.77
2018-11-25T13:17:57.247Z,36.30
2018-11-25T13:20:26.414Z,32.53
2018-11-25T13:22:55.834Z,36.60
2018-11-25T13:25:25.040Z,37.73
2018-11-25T13:27:53.911Z,36.50
2018-11-25T13:30:24.685Z,41.73
2018-11-25T13:32:54.963Z,38.13
2018-11-25T13:35:24.633Z,34.97
2018-11-25T13:37:53.615Z,37.93
2018-11-25T13:40:22.703Z,40.37
2018-11-25T13:42:51.868Z,40.80
2018-11-25T13:45:20.769Z,39.57
2018-11-25T13:47:49.707Z,35.90
2018-11-25T13:50:18.422Z,35.63
2018-11-25T13:52:47.300Z,42.83
2018-11-25T13:55:20.430Z,43.83
2018-11-25T13:57:49.275Z,37.43
2018-11-25T14:00:32.129Z,34.47
2018-11-25T14:03:01.723Z,34.87
2018-11-25T14:05:30.500Z,42.13
2018-11-25T14:07:59.297Z,38.87
2018-11-25T14:10:31.416Z,37.27
2018-11-25T14:13:00.370Z,29.20
2018-11-25T14:15:29.768Z,42.80
2018-11-25T14:17:58.215Z,42.10
2018-11-25T14:20:27.302Z,39.13
2018-11-25T14:22:56.470Z,37.50
2018-11-25T14:25:26.049Z,36.20
2018-11-25T14:27:57.073Z,36.67
2018-11-25T14:30:27.405Z,36.83
2018-11-25T14:32:56.166Z,34.90
2018-11-25T14:35:25.046Z,37.73
2018-11-25T14:37:54.437Z,35.90
2018-11-25T14:40:23.191Z,35.17
2018-11-25T14:42:51.965Z,40.03
2018-11-25T14:45:20.793Z,45.27
2018-11-25T14:47:49.640Z,31.73
2018-11-25T14:50:19.934Z,38.40
2018-11-25T14:52:51.208Z,39.20
2018-11-25T14:55:20.325Z,40.43
2018-11-25T14:57:49.532Z,33.47
2018-11-25T15:00:19.753Z,35.53
2018-11-25T15:02:51.110Z,42.10
2018-11-25T15:05:25.985Z,33.30
2018-11-25T15:07:54.903Z,38.13
2018-11-25T15:10:24.149Z,34.13
2018-11-25T15:12:52.977Z,37.10
2018-11-25T15:15:21.644Z,32.67
2018-11-25T15:17:50.508Z,37.40
2018-11-25T15:20:19.506Z,36.63
2018-11-25T15:22:53.237Z,36.70
2018-11-25T15:25:27.296Z,36.27
2018-11-25T15:27:56.123Z,36.87
2018-11-25T15:30:25.128Z,38.03
2018-11-25T15:32:54.041Z,36.50
2018-11-25T15:35:23.098Z,36.30
2018-11-25T15:37:52.883Z,37.23
2018-11-25T15:40:37.399Z,36.73
2018-11-25T15:43:07.779Z,38.07
2018-11-25T15:45:36.753Z,35.53
2018-11-25T15:48:13.988Z,46.17
2018-11-25T15:50:42.850Z,33.80
2018-11-25T15:53:12.096Z,33.07
2018-11-25T15:55:42.056Z,30.50
2018-11-25T15:58:11.430Z,42.17
2018-11-25T16:00:40.545Z,36.03
2018-11-25T16:03:10.610Z,39.43
2018-11-25T16:05:42.569Z,44.73
2018-11-25T16:08:11.633Z,42.50
2018-11-25T16:10:40.459Z,36.30
2018-11-25T16:13:09.908Z,39.10
2018-11-25T16:15:39.067Z,43.33
2018-11-25T16:18:08.406Z,46.40
2018-11-25T16:20:37.545Z,41.00
2018-11-25T16:23:09.015Z,33.53
2018-11-25T16:25:42.532Z,44.00
2018-11-25T16:28:25.257Z,40.50
2018-11-25T16:30:54.415Z,40.60
2018-11-25T16:33:23.269Z,42.57
2018-11-25T16:35:52.605Z,53.70
2018-11-25T16:38:21.580Z,56.03
2018-11-25T16:40:50.370Z,50.17
2018-11-25T16:43:19.019Z,51.73
2018-11-25T16:45:47.981Z,46.13
2018-11-25T16:48:17.091Z,51.20
2018-11-25T16:50:46.190Z,42.67
2018-11-25T16:53:15.227Z,50.90
2018-11-25T16:55:44.131Z,45.53
2018-11-25T16:58:13.399Z,42.33
2018-11-25T17:00:42.347Z,50.10
2018-11-25T17:03:11.468Z,41.00
2018-11-25T17:05:45.576Z,49.23
2018-11-25T17:08:24.240Z,46.17
2018-11-25T17:10:53.601Z,51.67
2018-11-25T17:13:23.230Z,45.70
2018-11-25T17:15:53.408Z,47.63
2018-11-25T17:18:22.376Z,44.67
2018-11-25T17:20:51.937Z,37.23
2018-11-25T17:23:21.299Z,37.73
2018-11-25T17:25:50.517Z,33.90
2018-11-25T17:28:19.613Z,43.33
2018-11-25T17:30:48.665Z,38.53
2018-11-25T17:33:17.933Z,42.97
2018-11-25T17:35:47.287Z,38.80
2018-11-25T17:38:16.622Z,42.90
2018-11-25T17:40:45.874Z,46.27
2018-11-25T17:43:17.564Z,39.57
2018-11-25T17:45:46.866Z,38.30
2018-11-25T17:48:16.474Z,44.40
2018-11-25T17:50:45.645Z,43.57
2018-11-25T17:53:20.696Z,40.30
2018-11-25T17:55:43.568Z,40.43
2018-11-25T17:58:13.092Z,44.10
2018-11-25T18:00:52.437Z,44.43
2018-11-25T18:03:24.848Z,46.90
2018-11-25T18:05:54.056Z,41.73
2018-11-25T18:08:23.383Z,36.67
2018-11-25T18:10:52.946Z,42.17
2018-11-25T18:13:24.323Z,47.00
2018-11-25T18:15:54.857Z,49.40
2018-11-25T18:18:32.657Z,43.93
2018-11-25T18:21:03.558Z,51.40
2018-11-25T18:23:32.890Z,50.77
2018-11-25T18:26:02.176Z,46.13
2018-11-25T18:28:31.523Z,46.23
2018-11-25T18:31:00.900Z,51.83
2018-11-25T18:33:30.396Z,46.73
2018-11-25T18:35:59.935Z,54.90
2018-11-25T18:38:28.920Z,49.33
2018-11-25T18:40:57.934Z,57.27
2018-11-25T18:43:28.011Z,49.57
2018-11-25T18:45:59.367Z,45.63
2018-11-25T18:48:26.998Z,45.97
2018-11-25T18:50:56.353Z,43.47
2018-11-25T18:53:26.028Z,58.10
2018-11-25T18:55:53.761Z,57.63
2018-11-25T18:58:23.351Z,51.83
2018-11-25T19:00:57.695Z,65.20
2018-11-25T19:03:27.421Z,123.20
2018-11-25T19:05:57.425Z,52.20
2018-11-25T19:08:27.171Z,59.47
2018-11-25T19:10:56.314Z,44.50
2018-11-25T19:13:25.693Z,48.70
2018-11-25T19:15:55.654Z,42.80
2018-11-25T19:18:24.971Z,44.40
2018-11-25T19:20:54.145Z,51.17
2018-11-25T19:23:23.443Z,45.97
2018-11-25T19:25:52.639Z,45.80
2018-11-25T19:28:21.439Z,60.07
2018-11-25T19:30:50.676Z,49.87
2018-11-25T19:33:19.892Z,51.00
2018-11-25T19:35:49.550Z,60.67
2018-11-25T19:38:18.723Z,59.27
2018-11-25T19:40:48.147Z,55.97
2018-11-25T19:43:16.988Z,69.40
2018-11-25T19:45:46.269Z,57.03
2018-11-25T19:48:15.492Z,59.37
2018-11-25T19:50:44.966Z,57.00
2018-11-25T19:53:14.200Z,62.43
2018-11-25T19:55:43.673Z,52.73
2018-11-25T19:58:12.750Z,53.90
2018-11-25T20:00:42.139Z,51.30
2018-11-25T20:03:11.272Z,53.20
2018-11-25T20:05:40.616Z,60.50
2018-11-25T20:08:10.162Z,54.37
2018-11-25T20:10:39.548Z,60.80
2018-11-25T20:13:09.860Z,62.80
2018-11-25T20:15:39.383Z,53.33
2018-11-25T20:18:09.571Z,56.93
2018-11-25T20:20:38.628Z,59.13
2018-11-25T20:23:08.128Z,52.07
2018-11-25T20:25:37.270Z,55.20
2018-11-25T20:28:06.215Z,53.03
2018-11-25T20:30:35.546Z,50.57
2018-11-25T20:33:09.738Z,54.40
2018-11-25T20:35:38.683Z,48.37
2018-11-25T20:38:13.050Z,55.93
2018-11-25T20:40:42.402Z,56.13
2018-11-25T20:43:11.210Z,55.23
2018-11-25T20:45:45.334Z,50.43
2018-11-25T20:48:14.789Z,48.47
2018-11-25T20:50:43.675Z,54.17
2018-11-25T20:53:17.841Z,61.13
2018-11-25T20:55:47.087Z,55.87
2018-11-25T20:58:15.978Z,52.27
2018-11-25T21:00:45.057Z,49.57
2018-11-25T21:03:14.287Z,54.30
2018-11-25T21:05:43.435Z,51.67
2018-11-25T21:08:12.566Z,53.73
2018-11-25T21:10:41.563Z,54.27
2018-11-25T21:13:10.617Z,51.27
2018-11-25T21:15:39.775Z,56.03
2018-11-25T21:18:08.951Z,45.63
2018-11-25T21:20:37.722Z,55.23
2018-11-25T21:23:06.939Z,47.60
2018-11-25T21:25:35.874Z,60.93
2018-11-25T21:28:04.639Z,54.37
2018-11-25T21:30:33.513Z,60.63
2018-11-25T21:33:02.448Z,54.50
2018-11-25T21:35:31.382Z,50.50
2018-11-25T21:38:00.508Z,57.20
2018-11-25T21:40:29.343Z,61.87
2018-11-25T21:42:58.145Z,57.13
2018-11-25T21:45:26.962Z,51.90
2018-11-25T21:47:55.766Z,49.97
2018-11-25T21:50:26.041Z,54.97
2018-11-25T21:52:55.073Z,46.87
2018-11-25T21:55:24.347Z,48.50
2018-11-25T21:57:53.143Z,55.50
2018-11-25T22:00:23.178Z,52.13
2018-11-25T22:02:52.239Z,55.77
2018-11-25T22:05:24.992Z,58.93
2018-11-25T22:07:52.877Z,55.27
2018-11-25T22:10:22.717Z,48.53
2018-11-25T22:12:50.950Z,49.17
2018-11-25T22:15:21.075Z,55.43
2018-11-25T22:17:50.245Z,54.67
2018-11-25T22:20:19.104Z,47.83
2018-11-25T22:22:48.162Z,59.07
2018-11-25T22:25:18.546Z,44.67
2018-11-25T22:27:47.641Z,52.83
2018-11-25T22:30:24.794Z,47.33
2018-11-25T22:32:53.794Z,45.70
2018-11-25T22:35:23.628Z,47.80
2018-11-25T22:37:52.446Z,45.00
2018-11-25T22:40:21.502Z,48.47
2018-11-25T22:42:51.045Z,49.97
2018-11-25T22:45:23.771Z,50.77
2018-11-25T22:47:52.355Z,46.90
2018-11-25T22:50:25.507Z,46.30
2018-11-25T22:52:51.315Z,57.47
2018-11-25T22:55:23.540Z,54.43
2018-11-25T22:57:52.404Z,66.40
2018-11-25T23:00:28.227Z,62.87
2018-11-25T23:02:56.975Z,58.40
2018-11-25T23:05:36.881Z,73.33
2018-11-25T23:08:05.874Z,57.80
2018-11-25T23:10:34.527Z,64.27
2018-11-25T23:13:03.222Z,56.50
2018-11-25T23:15:31.953Z,57.63
2018-11-25T23:18:00.592Z,48.83
2018-11-25T23:20:29.227Z,54.03
2018-11-25T23:22:57.786Z,47.70
2018-11-25T23:25:26.882Z,53.03
2018-11-25T23:27:55.469Z,51.30
2018-11-25T23:30:24.436Z,49.87
2018-11-25T23:32:53.171Z,49.40
2018-11-25T23:35:23.480Z,54.87
2018-11-25T23:37:52.308Z,55.10
2018-11-25T23:40:20.899Z,52.80
2018-11-25T23:42:49.552Z,52.63
2018-11-25T23:45:18.321Z,53.13
2018-11-25T23:47:47.520Z,54.23
2018-11-25T23:50:16.206Z,52.50
2018-11-25T23:52:46.924Z,45.97
2018-11-25T23:55:15.928Z,44.67
2018-11-25T23:57:44.509Z,47.77
